Billings, MT (59101)

9:33 AM MST on February 12, 2016 (GMT -0700)
Jupiter Sulphur | | Change Station
CLOSE
Current Station
Personal Weather Station
Location: Billings, MT
Elevation: 3114 ft
Nearby Weather Stations

Elev 3114 ft 45.78 °N, 108.49 °W | Updated 4 minutes ago

Overcast
Overcast
33.5 °F
Feels Like 30 °F
N
4.0
Wind Variable Wind from NE
Gusts 10.0 mph

Today
High -- | Low -- °F
--% Chance of Precip.
Yesterday
High -- | Low -- °F
Precip. -- in
Pressure 30.35 in
Visibility 10.0 miles
Clouds Few 300 ft
Mostly Cloudy 3200 ft
Overcast 4900 ft
Windchill 30 °F
Dew Point 30 °F
Humidity 88%
Rainfall 0.00 in
Snow Depth Not available.
7:21 AM 5:35 PM
Waxing Crescent, 21% visible
METAR KBIL 121553Z 04009KT 10SM FEW003 BKN032 OVC049 00/M02 A3028 RMK AO2 SLP275 T00001017
Pressure 30.35 in
Visibility 10.0 miles
Clouds Few 300 ft
Mostly Cloudy 3200 ft
Overcast 4900 ft
Windchill 30 °F
Dew Point 30 °F
Humidity 88%
Rainfall 0.00 in
Snow Depth Not available.
7:21 AM 5:35 PM
Waxing Crescent, 21% visible
METAR KBIL 121553Z 04009KT 10SM FEW003 BKN032 OVC049 00/M02 A3028 RMK AO2 SLP275 T00001017

10-Day Weather Forecast

Almanac

Astronomy

Feb. 12, 2016 Rise Set
Actual Time
Civil Twilight
Nautical Twilight
Astronomical Twilight
Moon
Length of Visible Light
Length of Day
Tomorrow will be .
, % of the Moon is Illuminated

Today's Extremes

State Highs State Lows

Community

WunderPhotos

Upload Photos

1,892,351 photos uploaded!

WunderBlog® & News

Nearby

Air Quality

  Air Quality AQ Index Pollutant
Not available.

Snow Depth

Station Depth Elevation

Earthquake Activity

City Distance Mag. Time & Date
Minimum magnitude displayed is 2.5.

Coastal Water Temperatures

Place Temperature

Stations

Nearby Weather Stations

Station Location Temp. Windchill Dew Point Humidity Wind Precip. Elev Updated Type
                   

Watches & Warnings

There are currently no watches in effect.